Time;durP1;ratioP1;P1;durP2;ratioP2;P2;SDS_P1;SDS_P2;PMS_P1;PMS_P2;Temp;Humidity;BMP_temperature;BMP_pressure;BME280_temperature;BME280_humidity;BME280_pressure;Samples;Min_cycle;Max_cycle;Signal;HPM_P1;HPM_P2
2022/11/04 00:02:06;;;;;;;7.27;1.43;;;18.40;74.50;;;;;;5055464;28;20697;-68
2022/11/04 00:04:33;;;;;;;11.43;1.80;;;18.50;73.00;;;;;;5054732;28;20183;-68
2022/11/04 00:08:22;;;;;;;7.23;1.83;;;18.60;71.00;;;;;;5055458;28;20229;-68
2022/11/04 00:09:48;;;;;;;4.07;1.30;;;18.70;72.20;;;;;;5035231;28;20535;-69
2022/11/04 00:12:24;;;;;;;5.20;1.57;;;18.70;68.40;;;;;;5054097;28;20176;-69
2022/11/04 00:14:52;;;;;;;10.87;2.20;;;18.80;69.50;;;;;;5070728;28;20208;-68
2022/11/04 00:17:23;;;;;;;5.80;2.00;;;18.70;71.60;;;;;;5054654;28;20172;-68
2022/11/04 00:33:52;;;;;;;9.93;2.57;;;18.60;73.30;;;;;;5034994;28;20256;-68
2022/11/04 00:36:20;;;;;;;7.10;1.80;;;18.30;72.50;;;;;;5042306;28;20267;-68
2022/11/04 00:38:47;;;;;;;7.70;2.10;;;18.50;73.20;;;;;;5054507;28;20176;-68
2022/11/04 00:41:27;;;;;;;7.23;1.70;;;18.40;70.50;;;;;;5054066;28;20184;-68
2022/11/04 00:43:59;;;;;;;6.67;1.90;;;18.40;71.60;;;;;;5054543;28;20203;-68
2022/11/04 00:46:29;;;;;;;6.60;2.23;;;18.40;70.40;;;;;;5054834;28;20214;-68
2022/11/04 00:48:57;;;;;;;10.87;2.10;;;18.50;70.20;;;;;;5054306;28;20228;-68
2022/11/04 00:51:24;;;;;;;8.50;2.30;;;18.60;68.90;;;;;;5053447;28;20260;-68
2022/11/04 00:53:52;;;;;;;5.77;1.97;;;18.70;68.70;;;;;;5052798;28;20234;-69
2022/11/04 00:56:19;;;;;;;10.13;1.83;;;18.80;68.50;;;;;;5050006;28;20185;-68
2022/11/04 00:58:48;;;;;;;6.83;2.10;;;19.10;68.60;;;;;;5054197;28;20263;-67
2022/11/04 01:01:17;;;;;;;9.30;2.00;;;19.60;67.10;;;;;;5053643;28;20525;-68
2022/11/04 01:03:49;;;;;;;4.63;1.50;;;20.20;67.00;;;;;;5053342;28;20211;-68
2022/11/04 01:06:18;;;;;;;8.47;2.10;;;20.40;62.70;;;;;;5053826;28;20191;-68
2022/11/04 01:08:46;;;;;;;6.57;1.67;;;20.90;62.30;;;;;;5053731;28;20199;-67
2022/11/04 01:11:14;;;;;;;6.17;1.70;;;21.30;60.40;;;;;;5051056;28;20220;-67
2022/11/04 01:13:42;;;;;;;4.73;1.77;;;21.60;58.80;;;;;;5053838;28;20247;-68
2022/11/04 01:16:11;;;;;;;6.73;1.33;;;21.90;57.70;;;;;;5037039;28;20238;-67
2022/11/04 01:18:40;;;;;;;4.80;1.60;;;21.80;57.50;;;;;;5051091;28;20612;-68
2022/11/04 01:21:10;;;;;;;4.43;1.90;;;22.00;57.40;;;;;;5053776;28;20191;-68
2022/11/04 01:23:38;;;;;;;9.57;1.90;;;21.70;55.50;;;;;;5047672;28;20654;-67
2022/11/04 01:26:21;;;;;;;7.87;2.33;;;21.40;55.50;;;;;;5045482;28;20582;-69
2022/11/04 01:28:48;;;;;;;8.47;2.07;;;22.30;57.10;;;;;;5052316;28;20215;-68
2022/11/04 01:31:20;;;;;;;4.03;1.67;;;22.30;53.30;;;;;;5052837;28;20214;-68
2022/11/04 01:33:49;;;;;;;14.30;2.20;;;21.90;56.30;;;;;;5052168;28;20180;-68
2022/11/04 01:36:16;;;;;;;5.57;1.90;;;21.80;56.00;;;;;;5037092;28;20566;-68
2022/11/04 01:38:44;;;;;;;4.30;1.30;;;21.80;55.50;;;;;;5052936;28;20661;-67
2022/11/04 01:41:23;;;;;;;8.70;2.00;;;21.80;54.10;;;;;;5045185;28;20235;-67
2022/11/04 01:43:54;;;;;;;7.47;1.80;;;21.50;55.50;;;;;;5047251;28;20187;-66
2022/11/04 01:46:30;;;;;;;5.53;2.10;;;20.90;57.40;;;;;;5053382;28;20271;-67
2022/11/04 01:49:19;;;;;;;8.33;2.20;;;20.90;57.70;;;;;;5052993;28;20280;-66
2022/11/04 01:51:48;;;;;;;7.03;2.20;;;20.50;58.30;;;;;;5053168;28;20168;-67
2022/11/04 01:54:16;;;;;;;6.00;2.27;;;20.90;58.80;;;;;;5032039;28;20242;-68
2022/11/04 01:56:46;;;;;;;6.10;1.63;;;21.10;56.90;;;;;;5046290;28;20184;-67
2022/11/04 01:59:20;;;;;;;6.03;1.77;;;20.90;56.80;;;;;;5044446;28;20638;-68
2022/11/04 02:01:48;;;;;;;7.60;1.83;;;20.90;58.00;;;;;;5039644;28;20684;-67
2022/11/04 02:04:25;;;;;;;8.63;1.87;;;20.90;58.30;;;;;;5048667;28;20253;-67
2022/11/04 02:07:04;;;;;;;13.37;2.50;;;20.70;57.80;;;;;;5041750;28;20191;-68
2022/11/04 02:09:33;;;;;;;5.63;1.90;;;20.80;58.60;;;;;;5051617;28;20184;-68
2022/11/04 02:14:48;;;;;;;10.07;1.87;;;21.10;57.00;;;;;;5049000;28;20227;-68
2022/11/04 02:17:18;;;;;;;7.53;1.93;;;21.10;56.80;;;;;;5046346;28;20179;-66
2022/11/04 02:20:01;;;;;;;7.03;1.80;;;21.30;56.90;;;;;;5050917;28;20265;-67
2022/11/04 02:22:46;;;;;;;9.67;2.10;;;21.60;57.10;;;;;;5041514;28;20172;-69
2022/11/04 02:25:50;;;;;;;8.77;2.27;;;21.30;58.00;;;;;;5053071;28;20183;-67
2022/11/04 02:28:26;;;;;;;3.73;1.70;;;21.40;58.00;;;;;;5032656;28;20179;-68
2022/11/04 02:31:02;;;;;;;5.33;2.07;;;21.90;57.90;;;;;;5052602;28;20179;-67
2022/11/04 02:34:01;;;;;;;9.20;1.80;;;21.90;57.50;;;;;;5047085;28;20187;-67
2022/11/04 02:36:42;;;;;;;10.53;2.00;;;21.80;57.00;;;;;;5013362;28;20192;-72
2022/11/04 02:39:24;;;;;;;7.43;1.97;;;22.00;56.50;;;;;;5047972;28;20180;-67
2022/11/04 02:41:56;;;;;;;8.67;1.90;;;21.80;55.80;;;;;;5044492;28;20192;-66
2022/11/04 02:44:37;;;;;;;11.50;1.87;;;21.90;55.90;;;;;;5046162;28;20216;-69
2022/11/04 02:47:23;;;;;;;9.33;2.00;;;21.90;55.10;;;;;;5051597;28;20666;-68
2022/11/04 02:50:08;;;;;;;7.33;1.80;;;21.30;56.10;;;;;;5040573;28;20677;-67
2022/11/04 02:52:57;;;;;;;3.63;1.30;;;21.40;55.90;;;;;;5033262;28;20176;-66
2022/11/04 02:55:42;;;;;;;7.67;1.93;;;21.50;55.10;;;;;;5031494;28;20208;-67
2022/11/04 02:58:15;;;;;;;7.63;1.80;;;21.50;54.90;;;;;;5032411;28;20196;-68
2022/11/04 03:00:44;;;;;;;5.53;1.87;;;21.30;55.40;;;;;;5042450;28;20187;-68
2022/11/04 03:03:19;;;;;;;7.23;2.10;;;21.20;54.90;;;;;;5035283;28;20271;-67
2022/11/04 03:05:50;;;;;;;7.40;2.00;;;21.60;53.60;;;;;;5041599;28;20201;-66
2022/11/04 03:08:30;;;;;;;4.63;2.10;;;21.40;54.60;;;;;;5052239;28;20242;-67
2022/11/04 03:11:13;;;;;;;8.27;1.97;;;21.80;54.30;;;;;;5050144;28;20206;-67
2022/11/04 03:13:51;;;;;;;5.27;1.77;;;22.00;52.00;;;;;;5044913;28;20266;-67
2022/11/04 03:16:25;;;;;;;5.27;1.97;;;21.70;53.60;;;;;;5052003;28;20199;-67
2022/11/04 03:19:17;;;;;;;6.77;1.70;;;22.30;51.80;;;;;;5048181;28;20176;-68
2022/11/04 03:22:11;;;;;;;9.00;1.90;;;22.30;52.10;;;;;;5036878;28;20193;-67
2022/11/04 03:24:39;;;;;;;6.33;1.70;;;22.70;51.60;;;;;;5040265;28;20184;-67
2022/11/04 03:27:48;;;;;;;7.97;1.70;;;22.50;52.00;;;;;;5050925;28;20186;-66
2022/11/04 03:30:18;;;;;;;9.73;2.67;;;21.80;52.90;;;;;;5045668;28;20210;-68
2022/11/04 03:32:46;;;;;;;9.90;1.97;;;22.30;52.60;;;;;;5044637;28;20652;-67
2022/11/04 03:35:15;;;;;;;7.50;1.40;;;22.30;52.70;;;;;;5038366;28;20265;-67
2022/11/04 03:37:44;;;;;;;9.23;1.60;;;22.40;51.30;;;;;;5046277;28;20193;-67
2022/11/04 03:40:13;;;;;;;4.00;1.30;;;22.40;51.30;;;;;;5045235;28;20227;-66
2022/11/04 03:43:03;;;;;;;5.17;1.40;;;22.90;50.90;;;;;;5049143;28;20227;-67
2022/11/04 03:45:31;;;;;;;2.43;1.10;;;22.60;50.70;;;;;;5050101;28;20609;-69
2022/11/04 03:47:59;;;;;;;8.63;2.20;;;22.90;50.80;;;;;;5051049;28;20187;-68
2022/11/04 03:50:28;;;;;;;4.37;1.40;;;23.40;50.30;;;;;;5050041;28;20230;-68
2022/11/04 03:52:56;;;;;;;5.77;1.90;;;23.50;47.60;;;;;;5048756;28;20182;-68
2022/11/04 03:55:48;;;;;;;6.13;1.93;;;23.30;48.80;;;;;;5050362;28;20208;-69
2022/11/04 03:58:35;;;;;;;5.70;1.57;;;23.30;47.90;;;;;;5036569;28;20200;-68
2022/11/04 04:01:25;;;;;;;7.60;1.63;;;22.40;49.80;;;;;;5044312;28;20188;-67
2022/11/04 04:04:16;;;;;;;7.43;1.63;;;22.30;50.70;;;;;;5038987;28;20667;-69
2022/11/04 04:06:45;;;;;;;4.90;1.33;;;23.30;48.90;;;;;;5045266;28;20189;-68
2022/11/04 04:09:36;;;;;;;6.67;1.63;;;23.10;48.50;;;;;;5047388;28;20633;-66
2022/11/04 04:12:11;;;;;;;5.60;1.80;;;22.80;49.60;;;;;;5052885;28;20176;-67
2022/11/04 04:14:56;;;;;;;7.90;1.33;;;23.50;49.80;;;;;;5042489;28;20231;-66
2022/11/04 04:17:29;;;;;;;6.10;1.60;;;24.10;47.20;;;;;;5043647;28;20191;-67
2022/11/04 04:20:03;;;;;;;6.63;1.70;;;24.00;47.70;;;;;;5050738;28;20176;-68
2022/11/04 04:22:51;;;;;;;4.13;1.70;;;23.30;49.10;;;;;;5050008;28;20705;-67
2022/11/04 04:28:06;;;;;;;7.33;1.80;;;23.50;49.50;;;;;;5055319;28;20535;-67
2022/11/04 04:30:35;;;;;;;9.00;1.93;;;23.40;48.70;;;;;;5054091;28;20184;-68
2022/11/04 04:33:17;;;;;;;9.07;1.63;;;22.80;49.80;;;;;;5042111;28;20192;-68
2022/11/04 04:35:53;;;;;;;8.77;1.73;;;24.10;48.70;;;;;;5045265;28;20268;-67
2022/11/04 04:47:31;;;;;;;7.70;1.60;;;23.20;48.50;;;;;;5054481;28;20669;-71
2022/11/04 04:50:02;;;;;;;3.10;1.30;;;24.40;46.90;;;;;;5066926;28;20207;-74
2022/11/04 04:52:39;;;;;;;5.97;1.20;;;24.90;45.10;;;;;;5044715;28;20181;-72
2022/11/04 04:55:19;;;;;;;8.40;2.10;;;24.50;45.20;;;;;;5037750;28;20211;-72
2022/11/04 04:57:50;;;;;;;8.63;1.50;;;24.60;45.30;;;;;;5055339;28;20179;-69
2022/11/04 05:00:29;;;;;;;6.20;1.60;;;24.10;46.10;;;;;;5054927;28;20175;-73
2022/11/04 05:03:07;;;;;;;;;;;;;;;;;;;;;
2022/11/04 05:05:35;;;;;;;5.40;1.40;;;23.10;48.30;;;;;;5042539;28;20176;-75
2022/11/04 05:08:07;;;;;;;5.10;1.30;;;22.70;49.60;;;;;;5058032;28;20661;-68
2022/11/04 05:10:34;;;;;;;6.13;1.60;;;22.90;49.10;;;;;;5043331;28;20537;-69
2022/11/04 05:15:47;;;;;;;10.57;1.93;;;23.90;46.30;;;;;;5052415;28;20342;-72
2022/11/04 05:18:14;;;;;;;5.43;1.50;;;24.20;46.40;;;;;;5050151;28;20184;-67
2022/11/04 05:20:42;;;;;;;6.00;1.57;;;24.20;46.60;;;;;;5051472;28;20281;-70
2022/11/04 05:23:11;;;;;;;7.20;1.60;;;24.30;45.70;;;;;;5050264;28;20176;-70
2022/11/04 05:25:39;;;;;;;10.10;1.93;;;24.50;45.90;;;;;;5047062;28;20604;-68
2022/11/04 05:28:08;;;;;;;9.87;1.80;;;25.30;44.50;;;;;;5050369;28;20242;-70
2022/11/04 05:30:35;;;;;;;6.07;1.40;;;26.00;43.40;;;;;;5053501;28;20180;-69
2022/11/04 05:33:03;;;;;;;3.43;1.40;;;25.80;42.90;;;;;;5052154;28;20202;-72
2022/11/04 05:35:31;;;;;;;4.53;1.50;;;25.60;43.50;;;;;;5037596;28;20208;-69
2022/11/04 05:37:58;;;;;;;5.57;1.63;;;25.50;43.20;;;;;;5053530;28;20653;-68
2022/11/04 05:40:26;;;;;;;6.20;1.53;;;25.30;43.30;;;;;;5053463;28;20584;-67
2022/11/04 05:42:53;;;;;;;7.27;1.30;;;25.10;44.10;;;;;;5053415;28;20646;-68
2022/11/04 05:45:20;;;;;;;6.30;1.50;;;25.00;44.20;;;;;;5046263;28;20255;-67
2022/11/04 05:47:48;;;;;;;3.67;1.33;;;24.80;45.20;;;;;;5053425;28;20555;-68
2022/11/04 05:50:15;;;;;;;5.47;1.37;;;24.80;45.10;;;;;;5052996;28;20638;-68
2022/11/04 05:52:42;;;;;;;7.80;1.60;;;25.50;43.20;;;;;;5053362;28;20267;-67
2022/11/04 05:55:10;;;;;;;6.83;1.43;;;25.30;44.20;;;;;;5049335;28;20241;-68
2022/11/04 05:57:37;;;;;;;9.50;2.80;;;25.80;42.60;;;;;;5030259;28;20795;-67
2022/11/04 06:00:05;;;;;;;5.07;1.43;;;25.20;42.60;;;;;;5053128;28;20183;-67
2022/11/04 06:05:55;;;;;;;3.67;1.63;;;25.50;43.10;;;;;;5046477;28;20187;-72
2022/11/04 06:08:22;;;;;;;8.10;1.80;;;25.10;44.30;;;;;;5052609;28;20249;-70
2022/11/04 06:10:49;;;;;;;6.13;1.60;;;24.20;45.30;;;;;;5052816;28;20175;-68
2022/11/04 06:13:16;;;;;;;4.57;1.77;;;24.30;43.90;;;;;;5039269;28;20647;-68
2022/11/04 06:15:44;;;;;;;3.97;1.30;;;24.60;43.80;;;;;;5052484;28;20223;-71
2022/11/04 06:18:11;;;;;;;7.10;1.60;;;24.50;44.40;;;;;;5051964;28;20252;-70
2022/11/04 06:20:38;;;;;;;7.37;1.73;;;24.60;43.70;;;;;;5052779;28;20180;-75
2022/11/04 06:23:06;;;;;;;6.67;1.50;;;24.30;44.50;;;;;;5051470;28;20544;-70
2022/11/04 06:25:33;;;;;;;7.40;1.40;;;23.50;46.80;;;;;;5045217;28;20188;-67
2022/11/04 06:28:01;;;;;;;5.00;1.70;;;23.20;49.10;;;;;;5033035;28;20629;-67
2022/11/04 06:30:28;;;;;;;5.90;1.97;;;24.30;45.10;;;;;;5052105;28;20187;-68
2022/11/04 06:32:55;;;;;;;8.30;1.63;;;24.70;43.80;;;;;;5049033;28;20278;-68
2022/11/04 06:35:23;;;;;;;5.23;1.57;;;25.30;42.90;;;;;;5047623;28;20216;-69
2022/11/04 06:37:50;;;;;;;3.63;1.33;;;25.70;41.60;;;;;;5051418;28;20233;-74
2022/11/04 06:40:18;;;;;;;8.07;1.73;;;24.80;43.60;;;;;;5051993;28;20745;-68
2022/11/04 06:42:45;;;;;;;5.67;1.67;;;24.70;43.50;;;;;;5050459;28;20175;-71
2022/11/04 06:45:12;;;;;;;11.47;1.83;;;24.60;45.30;;;;;;5038455;28;20250;-68
2022/11/04 06:47:40;;;;;;;9.23;1.60;;;25.30;42.50;;;;;;5051382;28;20188;-69
2022/11/04 06:50:07;;;;;;;2.90;1.50;;;23.80;45.80;;;;;;5050645;28;20175;-68
2022/11/04 06:52:35;;;;;;;6.83;1.60;;;24.00;46.00;;;;;;5050874;28;20179;-71
2022/11/04 06:55:02;;;;;;;5.93;1.93;;;23.30;47.50;;;;;;5047778;28;20232;-69
2022/11/04 06:57:29;;;;;;;5.00;2.00;;;23.40;47.20;;;;;;5047017;28;20286;-69
2022/11/04 06:59:57;;;;;;;5.23;1.70;;;23.80;47.30;;;;;;5039160;28;20263;-68
2022/11/04 07:02:24;;;;;;;7.47;1.87;;;23.80;46.90;;;;;;5057127;28;20191;-68
2022/11/04 07:04:51;;;;;;;3.87;1.70;;;23.20;48.40;;;;;;5044269;28;20176;-69
2022/11/04 07:07:19;;;;;;;8.03;1.80;;;23.00;49.40;;;;;;5042310;28;20191;-68
2022/11/04 07:09:46;;;;;;;8.20;2.03;;;22.70;50.30;;;;;;5050936;28;20267;-68
2022/11/04 07:12:14;;;;;;;8.60;1.73;;;22.90;49.20;;;;;;5049375;28;20210;-69
2022/11/04 07:14:41;;;;;;;10.50;2.63;;;22.60;50.40;;;;;;5047734;28;20266;-67
2022/11/04 07:17:10;;;;;;;9.33;2.40;;;23.20;50.30;;;;;;5049057;28;20180;-67
2022/11/04 07:19:37;;;;;;;7.57;1.77;;;23.80;48.40;;;;;;5049826;28;20180;-67
2022/11/04 07:22:04;;;;;;;9.77;2.20;;;24.00;47.70;;;;;;5051078;28;20679;-67
2022/11/04 07:24:32;;;;;;;7.03;2.00;;;23.40;49.40;;;;;;5051995;28;20608;-66
2022/11/04 07:26:59;;;;;;;5.13;1.87;;;23.20;50.00;;;;;;5051315;28;20218;-67
2022/11/04 07:29:27;;;;;;;9.43;1.97;;;22.00;53.40;;;;;;5051401;28;20266;-68
2022/11/04 07:31:55;;;;;;;9.73;2.03;;;21.30;55.80;;;;;;5051755;28;20184;-68
2022/11/04 07:34:22;;;;;;;7.73;2.20;;;21.00;56.60;;;;;;5050773;28;20187;-67
2022/11/04 07:36:49;;;;;;;9.60;2.30;;;21.00;57.10;;;;;;5052329;28;20263;-67
2022/11/04 07:39:17;;;;;;;10.60;1.70;;;20.50;58.10;;;;;;5051754;28;20176;-66
2022/11/04 07:41:44;;;;;;;8.73;1.90;;;19.80;60.60;;;;;;5054805;28;20176;-66
2022/11/04 07:44:12;;;;;;;9.20;2.03;;;19.60;61.50;;;;;;5053033;28;20692;-67
2022/11/04 07:46:40;;;;;;;10.03;2.27;;;19.60;61.90;;;;;;5055480;28;20176;-67
2022/11/04 07:49:07;;;;;;;10.50;2.30;;;19.70;61.60;;;;;;5054053;28;20669;-66
2022/11/04 07:51:35;;;;;;;5.87;2.17;;;19.70;61.90;;;;;;5055263;28;20213;-66
2022/11/04 07:54:03;;;;;;;7.53;2.30;;;19.70;61.70;;;;;;5054830;28;20570;-67
2022/11/04 07:56:30;;;;;;;8.50;2.10;;;19.50;62.40;;;;;;5054253;28;20238;-67
2022/11/04 07:58:58;;;;;;;7.33;1.87;;;19.50;62.80;;;;;;5055546;28;20176;-66
2022/11/04 08:01:25;;;;;;;8.53;1.90;;;19.30;62.50;;;;;;5054974;28;20183;-67
2022/11/04 08:03:53;;;;;;;7.50;1.73;;;19.20;63.20;;;;;;5055079;28;20230;-66
2022/11/04 08:06:21;;;;;;;8.20;2.13;;;19.20;63.70;;;;;;5054587;28;20184;-66
2022/11/04 08:08:49;;;;;;;6.40;2.10;;;19.20;63.80;;;;;;5054770;28;20626;-67
2022/11/04 08:11:18;;;;;;;11.77;2.33;;;19.20;63.60;;;;;;5054797;28;20179;-66
2022/11/04 08:13:47;;;;;;;7.80;1.90;;;19.20;63.80;;;;;;5043148;28;20203;-67
2022/11/04 08:16:17;;;;;;;9.30;2.37;;;19.00;64.50;;;;;;5048737;28;20623;-66
2022/11/04 08:18:46;;;;;;;6.70;1.90;;;19.00;64.80;;;;;;5047880;28;20207;-66
2022/11/04 08:21:13;;;;;;;6.93;2.10;;;18.80;65.10;;;;;;5052224;28;20191;-68
2022/11/04 08:23:41;;;;;;;9.30;2.10;;;18.80;65.10;;;;;;5048106;28;20172;-67
2022/11/04 08:26:18;;;;;;;6.40;2.17;;;18.80;65.40;;;;;;5047125;28;20214;-69
2022/11/04 08:28:46;;;;;;;10.93;2.23;;;18.80;65.40;;;;;;5042177;28;20274;-66
2022/11/04 08:31:18;;;;;;;12.07;2.30;;;18.80;65.00;;;;;;5052277;28;20188;-67
2022/11/04 08:33:46;;;;;;;11.23;2.23;;;18.60;65.30;;;;;;5048922;28;20257;-67
2022/11/04 08:36:25;;;;;;;11.07;2.07;;;18.50;65.20;;;;;;5050445;28;20215;-67
2022/11/04 08:38:53;;;;;;;6.77;2.30;;;18.50;65.30;;;;;;5046140;28;20201;-67
2022/11/04 08:41:24;;;;;;;8.23;2.27;;;18.50;65.30;;;;;;5052478;28;20259;-68
2022/11/04 08:43:52;;;;;;;10.53;2.40;;;18.50;65.70;;;;;;5054656;28;20184;-69
2022/11/04 08:46:19;;;;;;;13.80;2.33;;;18.30;65.70;;;;;;5054740;28;20520;-66
2022/11/04 08:48:48;;;;;;;9.20;2.60;;;18.30;65.20;;;;;;5050610;28;20247;-66
2022/11/04 08:51:24;;;;;;;8.93;2.20;;;18.30;65.60;;;;;;5051592;28;20214;-67
2022/11/04 08:53:52;;;;;;;12.07;2.77;;;18.40;65.90;;;;;;5053780;28;20502;-67
2022/11/04 08:56:25;;;;;;;10.80;2.00;;;18.30;66.30;;;;;;5053222;28;20254;-67
2022/11/04 08:58:53;;;;;;;9.33;2.30;;;18.40;65.70;;;;;;5053116;28;20188;-66
2022/11/04 09:01:21;;;;;;;11.97;2.17;;;18.30;65.70;;;;;;5049827;28;20195;-67
2022/11/04 09:03:49;;;;;;;9.67;2.43;;;18.30;66.10;;;;;;5045581;28;20230;-67
2022/11/04 09:06:24;;;;;;;10.23;2.60;;;18.20;65.70;;;;;;5051694;28;20195;-67
2022/11/04 09:08:54;;;;;;;12.83;2.90;;;18.20;66.10;;;;;;5052570;28;20280;-67
2022/11/04 09:11:21;;;;;;;15.53;2.97;;;18.20;65.70;;;;;;5053072;28;20687;-67
2022/11/04 09:13:48;;;;;;;9.80;2.63;;;18.20;65.60;;;;;;5053150;28;20184;-66
2022/11/04 09:16:16;;;;;;;9.67;2.40;;;18.20;65.30;;;;;;5054000;28;20219;-67
2022/11/04 09:18:43;;;;;;;11.10;2.63;;;18.20;65.90;;;;;;5053135;28;20697;-66
2022/11/04 09:21:13;;;;;;;13.77;2.63;;;18.10;66.20;;;;;;5052116;28;20646;-67
2022/11/04 09:23:40;;;;;;;12.27;2.70;;;18.10;66.20;;;;;;5067307;28;20266;-66
2022/11/04 09:26:13;;;;;;;11.50;3.00;;;18.00;65.70;;;;;;5053986;28;20180;-67
2022/11/04 09:28:41;;;;;;;6.17;2.30;;;18.00;65.60;;;;;;5051850;28;20647;-66
2022/11/04 09:31:15;;;;;;;8.20;1.87;;;18.00;65.50;;;;;;5050074;28;20517;-66
2022/11/04 09:33:43;;;;;;;6.70;1.90;;;18.00;65.40;;;;;;5053709;28;20737;-66
2022/11/04 09:36:11;;;;;;;10.30;1.90;;;17.90;65.50;;;;;;5052370;28;20227;-66
2022/11/04 09:38:40;;;;;;;6.07;2.20;;;17.80;65.70;;;;;;5052288;28;20759;-66
2022/11/04 09:41:46;;;;;;;9.50;2.03;;;17.80;66.10;;;;;;5053181;28;20534;-66
2022/11/04 09:44:36;;;;;;;8.03;1.50;;;17.90;66.10;;;;;;5036329;28;20226;-66
2022/11/04 09:47:04;;;;;;;8.70;2.13;;;17.90;66.00;;;;;;5050288;28;20203;-66
2022/11/04 09:49:37;;;;;;;7.47;2.27;;;17.90;66.10;;;;;;5052312;28;20176;-66
2022/11/04 09:52:36;;;;;;;10.77;2.40;;;17.90;66.20;;;;;;5042298;28;20199;-66
2022/11/04 09:55:12;;;;;;;7.80;1.90;;;17.90;66.40;;;;;;5047751;28;20249;-67
2022/11/04 09:57:39;;;;;;;11.13;2.30;;;17.90;66.30;;;;;;5052532;28;20215;-66
2022/11/04 10:00:13;;;;;;;10.70;2.00;;;18.00;66.70;;;;;;5053190;28;20179;-66
2022/11/04 10:02:49;;;;;;;6.93;2.57;;;17.90;66.50;;;;;;5052555;28;20179;-67
2022/11/04 10:05:17;;;;;;;9.20;2.30;;;17.90;66.50;;;;;;5051277;28;20604;-66
2022/11/04 10:08:14;;;;;;;15.03;2.60;;;17.90;66.90;;;;;;5049800;28;20176;-66
2022/11/04 10:10:46;;;;;;;6.20;2.00;;;17.80;66.40;;;;;;5045182;28;20249;-67
2022/11/04 10:13:43;;;;;;;6.47;1.90;;;17.80;66.60;;;;;;5052169;28;20198;-65
2022/11/04 10:16:31;;;;;;;10.17;2.20;;;17.80;66.20;;;;;;5044505;28;20250;-66
2022/11/04 10:19:08;;;;;;;8.70;2.47;;;17.80;66.80;;;;;;5051469;28;20191;-65
2022/11/04 10:22:07;;;;;;;11.40;2.30;;;17.80;66.70;;;;;;5049188;28;20218;-66
2022/11/04 10:24:56;;;;;;;9.70;2.50;;;17.80;67.00;;;;;;5044024;28;20190;-66
2022/11/04 10:27:31;;;;;;;9.67;2.13;;;17.80;67.30;;;;;;5051430;28;20187;-66
2022/11/04 10:30:14;;;;;;;9.97;2.00;;;17.80;67.60;;;;;;5050905;28;20178;-66
2022/11/04 10:33:16;;;;;;;11.37;2.57;;;17.70;67.20;;;;;;5051712;28;20211;-67
2022/11/04 10:35:56;;;;;;;9.10;2.27;;;17.60;67.60;;;;;;5051823;28;20210;-66
2022/11/04 10:38:43;;;;;;;10.43;2.63;;;17.50;67.70;;;;;;5041796;28;20190;-66
2022/11/04 10:41:25;;;;;;;9.07;2.30;;;17.60;67.80;;;;;;5051455;28;20178;-66
2022/11/04 10:44:12;;;;;;;10.27;2.47;;;17.50;67.70;;;;;;5052445;28;20234;-65
2022/11/04 10:47:10;;;;;;;9.67;2.20;;;17.50;67.60;;;;;;5052071;28;20573;-66
2022/11/04 10:50:01;;;;;;;7.03;1.93;;;17.50;67.70;;;;;;5050685;28;20193;-66
2022/11/04 10:52:31;;;;;;;8.93;2.37;;;17.50;67.60;;;;;;5012460;28;20560;-67
2022/11/04 10:54:59;;;;;;;7.80;2.23;;;17.50;66.80;;;;;;5034393;28;20726;-66
2022/11/04 10:57:27;;;;;;;13.07;2.57;;;17.50;67.10;;;;;;5043906;28;20192;-67
2022/11/04 10:59:55;;;;;;;9.37;2.03;;;17.50;67.30;;;;;;5047306;28;20664;-66
2022/11/04 11:02:41;;;;;;;9.87;2.07;;;17.40;67.70;;;;;;5043018;28;20229;-67
2022/11/04 11:05:28;;;;;;;11.80;2.20;;;17.40;67.90;;;;;;5049752;28;20182;-66
2022/11/04 11:07:57;;;;;;;14.30;2.43;;;17.30;68.20;;;;;;5046774;28;20177;-66
2022/11/04 11:10:27;;;;;;;7.13;2.33;;;17.30;68.50;;;;;;5050361;28;20184;-67
2022/11/04 11:13:01;;;;;;;9.97;2.40;;;17.30;68.40;;;;;;5052392;28;20187;-67
2022/11/04 11:15:35;;;;;;;14.97;2.53;;;17.30;68.50;;;;;;5052409;28;20551;-73
2022/11/04 11:18:13;;;;;;;11.03;2.20;;;17.30;68.70;;;;;;5056342;28;20174;-69
2022/11/04 11:20:47;;;;;;;11.03;1.93;;;17.30;68.60;;;;;;5056332;28;20210;-67
2022/11/04 11:23:34;;;;;;;12.23;2.50;;;17.30;68.90;;;;;;5055766;28;20181;-67
2022/11/04 11:26:03;;;;;;;9.07;2.30;;;17.30;69.00;;;;;;5045760;28;20722;-67
2022/11/04 11:28:36;;;;;;;7.63;1.90;;;17.30;69.20;;;;;;5056217;28;20178;-67
2022/11/04 11:31:22;;;;;;;5.20;2.37;;;17.20;69.50;;;;;;5055863;28;20190;-67
2022/11/04 11:33:56;;;;;;;10.97;2.07;;;17.20;69.70;;;;;;5056302;28;20179;-67
2022/11/04 11:36:36;;;;;;;9.63;2.30;;;17.20;70.10;;;;;;5054720;28;20313;-67
2022/11/04 11:39:17;;;;;;;10.10;2.70;;;17.20;70.30;;;;;;5048114;28;20191;-68
2022/11/04 11:42:05;;;;;;;8.80;2.13;;;17.10;70.30;;;;;;5055627;28;20317;-67
2022/11/04 11:44:43;;;;;;;10.03;2.50;;;17.20;70.70;;;;;;5066016;28;20737;-67
2022/11/04 11:47:22;;;;;;;9.17;2.20;;;17.20;70.70;;;;;;5055559;28;20241;-67
2022/11/04 11:50:13;;;;;;;14.73;2.43;;;17.10;70.90;;;;;;5055277;28;20263;-67
2022/11/04 11:52:42;;;;;;;10.77;2.47;;;17.10;70.90;;;;;;5055633;28;20715;-67
2022/11/04 11:55:35;;;;;;;10.23;2.13;;;17.10;71.50;;;;;;5055114;28;20200;-71
2022/11/04 11:58:41;;;;;;;12.97;2.67;;;17.00;71.80;;;;;;5055843;28;20265;-67
2022/11/04 12:01:09;;;;;;;10.97;2.50;;;17.00;72.10;;;;;;5055474;28;20210;-67
2022/11/04 12:03:46;;;;;;;8.93;2.17;;;17.00;72.30;;;;;;5055426;28;20183;-67
2022/11/04 12:06:41;;;;;;;11.83;3.83;;;17.00;72.40;;;;;;5055187;28;20276;-66
2022/11/04 12:09:15;;;;;;;15.57;6.33;;;17.00;72.80;;;;;;5055277;28;20183;-67
2022/11/04 12:12:05;;;;;;;16.33;6.70;;;17.00;73.20;;;;;;5055459;28;20233;-66
2022/11/04 12:14:44;;;;;;;14.63;6.67;;;17.00;73.40;;;;;;5055507;28;20641;-67
2022/11/04 12:17:33;;;;;;;12.10;6.30;;;17.00;73.40;;;;;;5054876;28;20209;-67
2022/11/04 12:20:12;;;;;;;13.07;5.17;;;17.00;74.00;;;;;;5054844;28;20255;-67
2022/11/04 12:22:45;;;;;;;15.00;5.43;;;16.90;74.30;;;;;;5049054;28;20179;-66
2022/11/04 12:25:47;;;;;;;12.33;3.07;;;16.90;74.10;;;;;;5055029;28;20256;-66
2022/11/04 12:28:42;;;;;;;10.13;2.50;;;16.90;73.80;;;;;;5043846;28;20187;-66
2022/11/04 12:31:38;;;;;;;8.90;2.80;;;17.00;73.90;;;;;;5054559;28;20188;-67
2022/11/04 12:34:23;;;;;;;12.53;2.50;;;16.90;73.90;;;;;;5055215;28;20170;-66
2022/11/04 12:37:19;;;;;;;10.40;2.73;;;16.90;74.10;;;;;;5055189;28;20191;-66
2022/11/04 12:40:06;;;;;;;11.10;2.80;;;16.90;73.70;;;;;;5043583;28;20195;-66
2022/11/04 12:43:00;;;;;;;7.90;2.93;;;16.90;74.10;;;;;;5054675;28;20643;-68
2022/11/04 12:45:36;;;;;;;11.83;2.67;;;16.90;74.00;;;;;;5043187;28;20230;-66
2022/11/04 12:48:11;;;;;;;13.03;2.87;;;16.90;74.30;;;;;;5054324;28;20211;-67
2022/11/04 12:50:50;;;;;;;14.77;3.60;;;16.80;74.20;;;;;;5053396;28;20209;-67
2022/11/04 12:53:33;;;;;;;13.50;2.77;;;16.80;74.30;;;;;;5054324;28;20174;-67
2022/11/04 12:56:10;;;;;;;16.03;3.13;;;16.80;74.30;;;;;;5052905;28;20218;-66
2022/11/04 12:58:43;;;;;;;10.53;3.20;;;16.80;74.40;;;;;;5054654;28;20183;-66
2022/11/04 13:01:31;;;;;;;12.70;3.33;;;16.80;74.50;;;;;;5053535;28;20234;-67
2022/11/04 13:04:25;;;;;;;10.80;3.30;;;16.80;74.60;;;;;;5054165;28;20177;-67
2022/11/04 13:07:02;;;;;;;13.40;3.87;;;16.80;74.80;;;;;;5054534;28;20179;-66
2022/11/04 13:09:42;;;;;;;11.80;3.30;;;16.80;74.80;;;;;;5054320;28;20172;-67
2022/11/04 13:12:23;;;;;;;9.83;2.60;;;16.80;75.00;;;;;;5047021;28;20184;-66
2022/11/04 13:14:59;;;;;;;9.60;3.10;;;16.80;75.30;;;;;;5041531;28;20206;-66
2022/11/04 13:17:48;;;;;;;9.40;2.97;;;16.70;75.40;;;;;;5052947;28;20238;-67
2022/11/04 13:20:27;;;;;;;15.40;3.40;;;16.70;75.50;;;;;;5053772;28;20232;-67
2022/11/04 13:23:00;;;;;;;18.27;3.77;;;16.70;75.50;;;;;;5053813;28;20266;-67
2022/11/04 13:25:41;;;;;;;23.80;9.47;;;16.70;75.60;;;;;;5053827;28;20197;-67
2022/11/04 13:28:19;;;;;;;17.97;7.27;;;16.60;75.50;;;;;;5053779;28;20274;-67
2022/11/04 13:31:11;;;;;;;11.97;3.80;;;16.60;75.90;;;;;;5054011;28;20176;-66
2022/11/04 13:33:51;;;;;;;9.67;2.37;;;16.60;75.90;;;;;;5043045;28;20181;-67
2022/11/04 13:36:32;;;;;;;9.50;2.20;;;16.50;76.10;;;;;;5053130;28;20341;-67
2022/11/04 13:39:23;;;;;;;12.43;2.63;;;16.40;76.20;;;;;;5051400;28;20655;-66
2022/11/04 13:42:12;;;;;;;11.27;3.03;;;16.30;76.40;;;;;;5046772;28;20183;-72
2022/11/04 13:44:48;;;;;;;9.03;2.60;;;16.30;77.00;;;;;;5033750;28;20214;-67
2022/11/04 13:47:31;;;;;;;13.10;2.83;;;16.20;77.20;;;;;;5052834;28;20207;-68
2022/11/04 13:49:58;;;;;;;13.10;2.70;;;16.20;77.80;;;;;;5050181;28;20184;-67
2022/11/04 13:52:32;;;;;;;8.30;2.87;;;16.10;77.80;;;;;;5035741;28;20181;-67
2022/11/04 13:55:04;;;;;;;7.77;2.53;;;16.10;78.30;;;;;;5034553;28;20196;-67
2022/11/04 13:57:48;;;;;;;6.03;2.10;;;16.00;78.60;;;;;;5053035;28;20184;-67
2022/11/04 14:00:23;;;;;;;10.43;2.60;;;16.00;79.10;;;;;;5052406;28;20183;-67